sensor_id;sensor_type;location;lat;lon;timestamp;temperature;humidity
48208;DHT22;33997;53.278;9.708;2023-08-30T00:00:11;12.10;95.80
48208;DHT22;33997;53.278;9.708;2023-08-30T00:02:37;12.10;95.80
48208;DHT22;33997;53.278;9.708;2023-08-30T00:05:03;12.10;96.10
48208;DHT22;33997;53.278;9.708;2023-08-30T00:07:29;12.10;95.90
48208;DHT22;33997;53.278;9.708;2023-08-30T00:09:55;12.10;95.80
48208;DHT22;33997;53.278;9.708;2023-08-30T00:12:21;12.10;96.10
48208;DHT22;33997;53.278;9.708;2023-08-30T00:14:47;12.10;96.40
48208;DHT22;33997;53.278;9.708;2023-08-30T00:17:12;12.00;96.30
48208;DHT22;33997;53.278;9.708;2023-08-30T00:19:38;12.00;96.10
48208;DHT22;33997;53.278;9.708;2023-08-30T00:22:04;11.90;95.90
48208;DHT22;33997;53.278;9.708;2023-08-30T00:24:32;11.90;96.10
48208;DHT22;33997;53.278;9.708;2023-08-30T00:26:58;11.80;96.00
48208;DHT22;33997;53.278;9.708;2023-08-30T00:29:23;11.80;95.90
48208;DHT22;33997;53.278;9.708;2023-08-30T00:31:49;11.80;96.20
48208;DHT22;33997;53.278;9.708;2023-08-30T00:34:14;11.80;96.70
48208;DHT22;33997;53.278;9.708;2023-08-30T00:36:40;11.70;97.10
48208;DHT22;33997;53.278;9.708;2023-08-30T00:39:05;11.60;97.00
48208;DHT22;33997;53.278;9.708;2023-08-30T00:41:31;11.60;97.00
48208;DHT22;33997;53.278;9.708;2023-08-30T00:43:56;11.50;96.80
48208;DHT22;33997;53.278;9.708;2023-08-30T00:46:22;11.50;96.60
48208;DHT22;33997;53.278;9.708;2023-08-30T00:48:48;11.50;96.60
48208;DHT22;33997;53.278;9.708;2023-08-30T00:51:13;11.50;96.90
48208;DHT22;33997;53.278;9.708;2023-08-30T00:53:39;11.50;97.20
48208;DHT22;33997;53.278;9.708;2023-08-30T00:56:05;11.50;97.40
48208;DHT22;33997;53.278;9.708;2023-08-30T00:58:30;11.40;97.10
48208;DHT22;33997;53.278;9.708;2023-08-30T01:00:56;11.30;96.80
48208;DHT22;33997;53.278;9.708;2023-08-30T01:03:22;11.30;96.60
48208;DHT22;33997;53.278;9.708;2023-08-30T01:05:48;11.30;96.40
48208;DHT22;33997;53.278;9.708;2023-08-30T01:08:14;11.30;96.30
48208;DHT22;33997;53.278;9.708;2023-08-30T01:11:00;11.30;96.60
48208;DHT22;33997;53.278;9.708;2023-08-30T01:13:28;11.30;96.60
48208;DHT22;33997;53.278;9.708;2023-08-30T01:15:56;11.30;96.70
48208;DHT22;33997;53.278;9.708;2023-08-30T01:18:26;11.40;96.70
48208;DHT22;33997;53.278;9.708;2023-08-30T01:20:52;11.40;96.80
48208;DHT22;33997;53.278;9.708;2023-08-30T01:26:32;11.60;97.50
48208;DHT22;33997;53.278;9.708;2023-08-30T01:29:02;11.70;97.70
48208;DHT22;33997;53.278;9.708;2023-08-30T01:31:32;11.80;97.90
48208;DHT22;33997;53.278;9.708;2023-08-30T01:33:59;11.90;98.10
48208;DHT22;33997;53.278;9.708;2023-08-30T01:36:26;11.90;98.10
48208;DHT22;33997;53.278;9.708;2023-08-30T01:38:52;12.00;98.10
48208;DHT22;33997;53.278;9.708;2023-08-30T01:41:19;12.00;98.10
48208;DHT22;33997;53.278;9.708;2023-08-30T01:43:46;12.00;98.00
48208;DHT22;33997;53.278;9.708;2023-08-30T01:46:13;12.00;98.00
48208;DHT22;33997;53.278;9.708;2023-08-30T01:48:39;12.00;97.80
48208;DHT22;33997;53.278;9.708;2023-08-30T01:51:05;12.00;97.70
48208;DHT22;33997;53.278;9.708;2023-08-30T01:53:32;12.00;97.40
48208;DHT22;33997;53.278;9.708;2023-08-30T01:55:57;12.00;97.20
48208;DHT22;33997;53.278;9.708;2023-08-30T01:58:23;12.00;97.20
48208;DHT22;33997;53.278;9.708;2023-08-30T02:00:48;12.00;97.20
48208;DHT22;33997;53.278;9.708;2023-08-30T02:03:14;12.00;97.20
48208;DHT22;33997;53.278;9.708;2023-08-30T02:05:48;12.00;97.20
48208;DHT22;33997;53.278;9.708;2023-08-30T02:08:16;12.00;97.30
48208;DHT22;33997;53.278;9.708;2023-08-30T02:10:48;12.00;97.60
48208;DHT22;33997;53.278;9.708;2023-08-30T02:13:18;12.00;97.60
48208;DHT22;33997;53.278;9.708;2023-08-30T02:15:47;12.00;97.70
48208;DHT22;33997;53.278;9.708;2023-08-30T02:18:13;12.00;97.70
48208;DHT22;33997;53.278;9.708;2023-08-30T02:20:39;12.00;97.70
48208;DHT22;33997;53.278;9.708;2023-08-30T02:23:05;12.10;97.70
48208;DHT22;33997;53.278;9.708;2023-08-30T02:25:30;12.10;97.60
48208;DHT22;33997;53.278;9.708;2023-08-30T02:27:55;12.10;97.60
48208;DHT22;33997;53.278;9.708;2023-08-30T02:30:21;12.10;97.60
48208;DHT22;33997;53.278;9.708;2023-08-30T02:32:46;12.10;97.50
48208;DHT22;33997;53.278;9.708;2023-08-30T02:35:12;12.20;97.70
48208;DHT22;33997;53.278;9.708;2023-08-30T02:37:37;12.30;97.80
48208;DHT22;33997;53.278;9.708;2023-08-30T02:40:05;12.30;97.80
48208;DHT22;33997;53.278;9.708;2023-08-30T02:42:31;12.30;97.80
48208;DHT22;33997;53.278;9.708;2023-08-30T02:44:56;12.40;97.90
48208;DHT22;33997;53.278;9.708;2023-08-30T02:47:22;12.50;97.90
48208;DHT22;33997;53.278;9.708;2023-08-30T02:49:47;12.50;97.80
48208;DHT22;33997;53.278;9.708;2023-08-30T02:52:13;12.50;97.80
48208;DHT22;33997;53.278;9.708;2023-08-30T02:54:38;12.50;97.70
48208;DHT22;33997;53.278;9.708;2023-08-30T02:57:04;12.60;97.80
48208;DHT22;33997;53.278;9.708;2023-08-30T02:59:29;12.70;97.80
48208;DHT22;33997;53.278;9.708;2023-08-30T03:01:55;12.70;97.60
48208;DHT22;33997;53.278;9.708;2023-08-30T03:04:20;12.60;97.70
48208;DHT22;33997;53.278;9.708;2023-08-30T03:06:46;12.70;97.60
48208;DHT22;33997;53.278;9.708;2023-08-30T03:09:12;12.70;97.70
48208;DHT22;33997;53.278;9.708;2023-08-30T03:11:37;12.80;97.80
48208;DHT22;33997;53.278;9.708;2023-08-30T03:14:03;12.80;97.50
48208;DHT22;33997;53.278;9.708;2023-08-30T03:16:28;12.80;97.40
48208;DHT22;33997;53.278;9.708;2023-08-30T03:18:54;12.70;97.30
48208;DHT22;33997;53.278;9.708;2023-08-30T03:21:19;12.70;97.30
48208;DHT22;33997;53.278;9.708;2023-08-30T03:23:45;12.70;97.50
48208;DHT22;33997;53.278;9.708;2023-08-30T03:26:17;12.70;97.50
48208;DHT22;33997;53.278;9.708;2023-08-30T03:28:44;12.70;97.40
48208;DHT22;33997;53.278;9.708;2023-08-30T03:31:16;12.70;97.40
48208;DHT22;33997;53.278;9.708;2023-08-30T03:33:42;12.70;97.40
48208;DHT22;33997;53.278;9.708;2023-08-30T03:36:10;12.70;97.40
48208;DHT22;33997;53.278;9.708;2023-08-30T03:38:36;12.70;97.50
48208;DHT22;33997;53.278;9.708;2023-08-30T03:41:03;12.60;97.40
48208;DHT22;33997;53.278;9.708;2023-08-30T03:43:29;12.70;97.60
48208;DHT22;33997;53.278;9.708;2023-08-30T03:45:54;12.60;97.40
48208;DHT22;33997;53.278;9.708;2023-08-30T03:48:20;12.60;97.40
48208;DHT22;33997;53.278;9.708;2023-08-30T03:50:45;12.60;97.40
48208;DHT22;33997;53.278;9.708;2023-08-30T03:53:11;12.60;97.30
48208;DHT22;33997;53.278;9.708;2023-08-30T03:55:36;12.60;97.40
48208;DHT22;33997;53.278;9.708;2023-08-30T03:58:02;12.70;97.30
48208;DHT22;33997;53.278;9.708;2023-08-30T04:00:28;12.60;97.30
48208;DHT22;33997;53.278;9.708;2023-08-30T04:02:54;12.60;97.30
48208;DHT22;33997;53.278;9.708;2023-08-30T04:05:19;12.70;97.30
48208;DHT22;33997;53.278;9.708;2023-08-30T04:07:45;12.70;97.30
48208;DHT22;33997;53.278;9.708;2023-08-30T04:10:10;12.60;97.10
48208;DHT22;33997;53.278;9.708;2023-08-30T04:12:35;12.60;97.20
48208;DHT22;33997;53.278;9.708;2023-08-30T04:15:02;12.60;97.30
48208;DHT22;33997;53.278;9.708;2023-08-30T04:17:27;12.70;97.20
48208;DHT22;33997;53.278;9.708;2023-08-30T04:19:53;12.70;97.00
48208;DHT22;33997;53.278;9.708;2023-08-30T04:22:19;12.80;97.00
48208;DHT22;33997;53.278;9.708;2023-08-30T04:24:46;12.80;96.90
48208;DHT22;33997;53.278;9.708;2023-08-30T04:27:11;12.80;96.90
48208;DHT22;33997;53.278;9.708;2023-08-30T04:29:37;12.90;96.80
48208;DHT22;33997;53.278;9.708;2023-08-30T04:32:02;12.90;96.50
48208;DHT22;33997;53.278;9.708;2023-08-30T04:34:28;12.90;96.40
48208;DHT22;33997;53.278;9.708;2023-08-30T04:36:55;12.90;96.40
48208;DHT22;33997;53.278;9.708;2023-08-30T04:39:20;12.90;96.40
48208;DHT22;33997;53.278;9.708;2023-08-30T04:41:45;13.00;96.30
48208;DHT22;33997;53.278;9.708;2023-08-30T04:44:11;13.00;96.20
48208;DHT22;33997;53.278;9.708;2023-08-30T04:46:36;13.00;96.10
48208;DHT22;33997;53.278;9.708;2023-08-30T04:49:02;13.00;96.00
48208;DHT22;33997;53.278;9.708;2023-08-30T04:51:27;13.00;96.00
48208;DHT22;33997;53.278;9.708;2023-08-30T04:53:53;13.00;96.00
48208;DHT22;33997;53.278;9.708;2023-08-30T04:56:18;13.10;95.80
48208;DHT22;33997;53.278;9.708;2023-08-30T04:58:44;13.10;95.70
48208;DHT22;33997;53.278;9.708;2023-08-30T05:01:09;13.10;95.60
48208;DHT22;33997;53.278;9.708;2023-08-30T05:03:36;13.20;95.50
48208;DHT22;33997;53.278;9.708;2023-08-30T05:06:02;13.30;95.40
48208;DHT22;33997;53.278;9.708;2023-08-30T05:08:28;13.30;95.30
48208;DHT22;33997;53.278;9.708;2023-08-30T05:10:54;13.30;95.20
48208;DHT22;33997;53.278;9.708;2023-08-30T05:13:20;13.30;95.20
48208;DHT22;33997;53.278;9.708;2023-08-30T05:15:45;13.30;94.90
48208;DHT22;33997;53.278;9.708;2023-08-30T05:18:11;13.30;94.70
48208;DHT22;33997;53.278;9.708;2023-08-30T05:20:36;13.40;94.80
48208;DHT22;33997;53.278;9.708;2023-08-30T05:23:02;13.40;94.60
48208;DHT22;33997;53.278;9.708;2023-08-30T05:25:28;13.40;94.70
48208;DHT22;33997;53.278;9.708;2023-08-30T05:27:53;13.50;94.80
48208;DHT22;33997;53.278;9.708;2023-08-30T05:30:19;13.50;94.70
48208;DHT22;33997;53.278;9.708;2023-08-30T05:32:44;13.50;94.70
48208;DHT22;33997;53.278;9.708;2023-08-30T05:35:10;13.50;94.50
48208;DHT22;33997;53.278;9.708;2023-08-30T05:37:35;13.60;94.60
48208;DHT22;33997;53.278;9.708;2023-08-30T05:40:01;13.60;94.40
48208;DHT22;33997;53.278;9.708;2023-08-30T05:42:26;13.60;94.40
48208;DHT22;33997;53.278;9.708;2023-08-30T05:44:53;13.60;94.30
48208;DHT22;33997;53.278;9.708;2023-08-30T05:47:19;13.70;94.10
48208;DHT22;33997;53.278;9.708;2023-08-30T05:49:45;13.80;94.20
48208;DHT22;33997;53.278;9.708;2023-08-30T05:52:11;13.90;94.00
48208;DHT22;33997;53.278;9.708;2023-08-30T05:54:36;14.00;94.00
48208;DHT22;33997;53.278;9.708;2023-08-30T05:57:01;14.00;94.00
48208;DHT22;33997;53.278;9.708;2023-08-30T05:59:27;14.00;93.70
48208;DHT22;33997;53.278;9.708;2023-08-30T06:01:53;14.10;93.90
48208;DHT22;33997;53.278;9.708;2023-08-30T06:04:18;14.20;93.60
48208;DHT22;33997;53.278;9.708;2023-08-30T06:06:44;14.10;93.00
48208;DHT22;33997;53.278;9.708;2023-08-30T06:09:10;14.20;93.40
48208;DHT22;33997;53.278;9.708;2023-08-30T06:11:37;14.20;93.10
48208;DHT22;33997;53.278;9.708;2023-08-30T06:14:02;14.20;93.20
48208;DHT22;33997;53.278;9.708;2023-08-30T06:16:28;14.30;92.90
48208;DHT22;33997;53.278;9.708;2023-08-30T06:18:54;14.30;92.90
48208;DHT22;33997;53.278;9.708;2023-08-30T06:21:19;14.30;92.80
48208;DHT22;33997;53.278;9.708;2023-08-30T06:23:45;14.40;92.70
48208;DHT22;33997;53.278;9.708;2023-08-30T06:26:10;14.50;92.80
48208;DHT22;33997;53.278;9.708;2023-08-30T06:28:36;14.60;92.80
48208;DHT22;33997;53.278;9.708;2023-08-30T06:31:01;14.60;92.60
48208;DHT22;33997;53.278;9.708;2023-08-30T06:33:27;14.60;92.20
48208;DHT22;33997;53.278;9.708;2023-08-30T06:35:52;14.60;92.40
48208;DHT22;33997;53.278;9.708;2023-08-30T06:38:19;14.70;92.20
48208;DHT22;33997;53.278;9.708;2023-08-30T06:40:45;14.80;92.20
48208;DHT22;33997;53.278;9.708;2023-08-30T06:43:11;14.80;91.80
48208;DHT22;33997;53.278;9.708;2023-08-30T06:45:38;14.70;91.80
48208;DHT22;33997;53.278;9.708;2023-08-30T06:48:06;14.90;91.80
48208;DHT22;33997;53.278;9.708;2023-08-30T06:50:31;15.00;91.70
48208;DHT22;33997;53.278;9.708;2023-08-30T06:52:57;15.00;91.70
48208;DHT22;33997;53.278;9.708;2023-08-30T06:55:22;15.00;91.50
48208;DHT22;33997;53.278;9.708;2023-08-30T06:57:48;15.00;91.50
48208;DHT22;33997;53.278;9.708;2023-08-30T07:00:15;15.00;91.10
48208;DHT22;33997;53.278;9.708;2023-08-30T07:02:41;15.10;91.50
48208;DHT22;33997;53.278;9.708;2023-08-30T07:05:10;15.10;91.60
48208;DHT22;33997;53.278;9.708;2023-08-30T07:07:35;15.00;91.60
48208;DHT22;33997;53.278;9.708;2023-08-30T07:10:01;15.20;91.60
48208;DHT22;33997;53.278;9.708;2023-08-30T07:12:28;15.30;91.60
48208;DHT22;33997;53.278;9.708;2023-08-30T07:14:53;15.40;91.10
48208;DHT22;33997;53.278;9.708;2023-08-30T07:17:19;15.40;91.10
48208;DHT22;33997;53.278;9.708;2023-08-30T07:19:45;15.50;91.40
48208;DHT22;33997;53.278;9.708;2023-08-30T07:22:10;15.70;91.00
48208;DHT22;33997;53.278;9.708;2023-08-30T07:24:36;15.80;90.50
48208;DHT22;33997;53.278;9.708;2023-08-30T07:27:01;15.90;90.30
48208;DHT22;33997;53.278;9.708;2023-08-30T07:29:27;16.00;89.80
48208;DHT22;33997;53.278;9.708;2023-08-30T07:31:52;15.90;89.60
48208;DHT22;33997;53.278;9.708;2023-08-30T07:34:18;15.90;89.50
48208;DHT22;33997;53.278;9.708;2023-08-30T07:36:44;16.00;89.60
48208;DHT22;33997;53.278;9.708;2023-08-30T07:39:09;16.00;89.40
48208;DHT22;33997;53.278;9.708;2023-08-30T07:41:35;16.10;88.90
48208;DHT22;33997;53.278;9.708;2023-08-30T07:44:01;16.10;89.30
48208;DHT22;33997;53.278;9.708;2023-08-30T07:46:26;16.30;88.80
48208;DHT22;33997;53.278;9.708;2023-08-30T07:48:52;16.20;88.70
48208;DHT22;33997;53.278;9.708;2023-08-30T07:51:17;16.50;89.30
48208;DHT22;33997;53.278;9.708;2023-08-30T07:53:43;16.60;88.20
48208;DHT22;33997;53.278;9.708;2023-08-30T07:56:08;16.70;88.10
48208;DHT22;33997;53.278;9.708;2023-08-30T07:58:34;17.00;87.90
48208;DHT22;33997;53.278;9.708;2023-08-30T08:00:59;16.90;86.50
48208;DHT22;33997;53.278;9.708;2023-08-30T08:03:25;17.10;86.80
48208;DHT22;33997;53.278;9.708;2023-08-30T08:05:51;17.30;86.60
48208;DHT22;33997;53.278;9.708;2023-08-30T08:08:16;17.50;86.60
48208;DHT22;33997;53.278;9.708;2023-08-30T08:10:42;17.60;85.00
48208;DHT22;33997;53.278;9.708;2023-08-30T08:13:08;17.70;84.80
48208;DHT22;33997;53.278;9.708;2023-08-30T08:15:33;18.00;84.20
48208;DHT22;33997;53.278;9.708;2023-08-30T08:18:00;18.20;84.50
48208;DHT22;33997;53.278;9.708;2023-08-30T08:20:26;18.30;83.50
48208;DHT22;33997;53.278;9.708;2023-08-30T08:22:51;18.20;82.90
48208;DHT22;33997;53.278;9.708;2023-08-30T08:25:17;18.20;83.20
48208;DHT22;33997;53.278;9.708;2023-08-30T08:27:43;18.00;83.50
48208;DHT22;33997;53.278;9.708;2023-08-30T08:30:08;18.10;83.10
48208;DHT22;33997;53.278;9.708;2023-08-30T08:32:35;18.30;82.40
48208;DHT22;33997;53.278;9.708;2023-08-30T08:35:01;18.30;83.60
48208;DHT22;33997;53.278;9.708;2023-08-30T08:37:27;18.60;83.50
48208;DHT22;33997;53.278;9.708;2023-08-30T08:39:52;18.60;82.30
48208;DHT22;33997;53.278;9.708;2023-08-30T08:42:19;18.40;80.50
48208;DHT22;33997;53.278;9.708;2023-08-30T08:44:46;18.30;80.60
48208;DHT22;33997;53.278;9.708;2023-08-30T08:47:15;18.00;80.50
48208;DHT22;33997;53.278;9.708;2023-08-30T08:49:42;18.00;80.20
48208;DHT22;33997;53.278;9.708;2023-08-30T08:52:07;18.00;81.80
48208;DHT22;33997;53.278;9.708;2023-08-30T08:54:33;18.00;82.20
48208;DHT22;33997;53.278;9.708;2023-08-30T08:56:59;18.00;82.00
48208;DHT22;33997;53.278;9.708;2023-08-30T08:59:25;18.00;82.50
48208;DHT22;33997;53.278;9.708;2023-08-30T09:01:51;17.90;82.30
48208;DHT22;33997;53.278;9.708;2023-08-30T09:04:17;18.00;83.40
48208;DHT22;33997;53.278;9.708;2023-08-30T09:06:43;18.10;82.70
48208;DHT22;33997;53.278;9.708;2023-08-30T09:09:09;18.10;82.60
48208;DHT22;33997;53.278;9.708;2023-08-30T09:11:36;18.30;83.00
48208;DHT22;33997;53.278;9.708;2023-08-30T09:14:01;18.30;81.20
48208;DHT22;33997;53.278;9.708;2023-08-30T09:16:27;18.30;80.50
48208;DHT22;33997;53.278;9.708;2023-08-30T09:19:00;18.40;80.60
48208;DHT22;33997;53.278;9.708;2023-08-30T09:21:26;18.60;78.80
48208;DHT22;33997;53.278;9.708;2023-08-30T09:24:05;18.60;78.90
48208;DHT22;33997;53.278;9.708;2023-08-30T09:26:32;18.60;79.70
48208;DHT22;33997;53.278;9.708;2023-08-30T09:29:05;18.60;77.20
48208;DHT22;33997;53.278;9.708;2023-08-30T09:31:38;18.60;75.20
48208;DHT22;33997;53.278;9.708;2023-08-30T09:34:06;18.50;75.30
48208;DHT22;33997;53.278;9.708;2023-08-30T09:36:38;18.60;77.60
48208;DHT22;33997;53.278;9.708;2023-08-30T09:39:08;18.70;77.30
48208;DHT22;33997;53.278;9.708;2023-08-30T09:41:35;19.00;77.90
48208;DHT22;33997;53.278;9.708;2023-08-30T09:44:06;19.10;74.80
48208;DHT22;33997;53.278;9.708;2023-08-30T09:46:39;19.40;73.40
48208;DHT22;33997;53.278;9.708;2023-08-30T09:49:05;19.30;74.10
48208;DHT22;33997;53.278;9.708;2023-08-30T09:51:31;19.30;73.50
48208;DHT22;33997;53.278;9.708;2023-08-30T09:53:58;19.30;73.50
48208;DHT22;33997;53.278;9.708;2023-08-30T09:56:29;19.40;72.60
48208;DHT22;33997;53.278;9.708;2023-08-30T09:58:57;19.50;71.20
48208;DHT22;33997;53.278;9.708;2023-08-30T10:01:25;19.70;73.30
48208;DHT22;33997;53.278;9.708;2023-08-30T10:03:52;19.70;71.80
48208;DHT22;33997;53.278;9.708;2023-08-30T10:06:18;19.70;71.30
48208;DHT22;33997;53.278;9.708;2023-08-30T10:08:45;20.00;73.00
48208;DHT22;33997;53.278;9.708;2023-08-30T10:11:13;20.50;71.70
48208;DHT22;33997;53.278;9.708;2023-08-30T10:13:42;20.30;71.30
48208;DHT22;33997;53.278;9.708;2023-08-30T10:16:12;20.40;70.80
48208;DHT22;33997;53.278;9.708;2023-08-30T10:18:40;20.60;69.90
48208;DHT22;33997;53.278;9.708;2023-08-30T10:21:07;20.30;68.20
48208;DHT22;33997;53.278;9.708;2023-08-30T10:23:36;20.40;69.40
48208;DHT22;33997;53.278;9.708;2023-08-30T10:26:03;20.40;67.70
48208;DHT22;33997;53.278;9.708;2023-08-30T10:28:31;20.40;68.20
48208;DHT22;33997;53.278;9.708;2023-08-30T10:30:58;20.60;69.50
48208;DHT22;33997;53.278;9.708;2023-08-30T10:33:23;20.80;67.70
48208;DHT22;33997;53.278;9.708;2023-08-30T10:35:51;20.90;66.20
48208;DHT22;33997;53.278;9.708;2023-08-30T10:38:27;21.00;67.60
48208;DHT22;33997;53.278;9.708;2023-08-30T10:41:05;21.30;64.90
48208;DHT22;33997;53.278;9.708;2023-08-30T10:43:34;21.30;65.90
48208;DHT22;33997;53.278;9.708;2023-08-30T10:46:04;21.00;68.30
48208;DHT22;33997;53.278;9.708;2023-08-30T10:48:40;21.30;67.00
48208;DHT22;33997;53.278;9.708;2023-08-30T10:51:22;20.60;64.20
48208;DHT22;33997;53.278;9.708;2023-08-30T10:53:59;20.70;66.70
48208;DHT22;33997;53.278;9.708;2023-08-30T10:56:29;20.80;68.20
48208;DHT22;33997;53.278;9.708;2023-08-30T10:58:55;20.70;65.20
48208;DHT22;33997;53.278;9.708;2023-08-30T11:01:20;20.80;65.70
48208;DHT22;33997;53.278;9.708;2023-08-30T11:03:46;21.10;65.60
48208;DHT22;33997;53.278;9.708;2023-08-30T11:06:15;21.20;67.80
48208;DHT22;33997;53.278;9.708;2023-08-30T11:08:43;21.30;65.80
48208;DHT22;33997;53.278;9.708;2023-08-30T11:11:09;21.60;64.80
48208;DHT22;33997;53.278;9.708;2023-08-30T11:13:36;21.90;64.30
48208;DHT22;33997;53.278;9.708;2023-08-30T11:16:02;22.10;63.00
48208;DHT22;33997;53.278;9.708;2023-08-30T11:18:30;21.80;64.80
48208;DHT22;33997;53.278;9.708;2023-08-30T11:21:00;21.50;65.70
48208;DHT22;33997;53.278;9.708;2023-08-30T11:23:26;21.30;64.60
48208;DHT22;33997;53.278;9.708;2023-08-30T11:25:51;21.00;66.20
48208;DHT22;33997;53.278;9.708;2023-08-30T11:28:24;21.00;66.40
48208;DHT22;33997;53.278;9.708;2023-08-30T11:30:53;20.90;66.10
48208;DHT22;33997;53.278;9.708;2023-08-30T11:33:19;21.50;65.70
48208;DHT22;33997;53.278;9.708;2023-08-30T11:35:45;21.70;63.50
48208;DHT22;33997;53.278;9.708;2023-08-30T11:38:10;21.20;65.10
48208;DHT22;33997;53.278;9.708;2023-08-30T11:40:36;21.30;64.50
48208;DHT22;33997;53.278;9.708;2023-08-30T11:43:02;21.10;63.10
48208;DHT22;33997;53.278;9.708;2023-08-30T11:45:31;21.50;65.10
48208;DHT22;33997;53.278;9.708;2023-08-30T11:47:58;21.50;64.00
48208;DHT22;33997;53.278;9.708;2023-08-30T11:50:24;21.00;64.70
48208;DHT22;33997;53.278;9.708;2023-08-30T11:52:50;20.60;65.60
48208;DHT22;33997;53.278;9.708;2023-08-30T11:55:16;20.50;66.80
48208;DHT22;33997;53.278;9.708;2023-08-30T11:57:44;20.50;66.30
48208;DHT22;33997;53.278;9.708;2023-08-30T12:00:11;20.80;65.90
48208;DHT22;33997;53.278;9.708;2023-08-30T12:02:38;21.40;65.20
48208;DHT22;33997;53.278;9.708;2023-08-30T12:05:03;21.70;62.40
48208;DHT22;33997;53.278;9.708;2023-08-30T12:07:29;21.60;64.00
48208;DHT22;33997;53.278;9.708;2023-08-30T12:10:11;21.50;62.40
48208;DHT22;33997;53.278;9.708;2023-08-30T12:12:37;21.50;63.60
48208;DHT22;33997;53.278;9.708;2023-08-30T12:15:13;21.50;63.30
48208;DHT22;33997;53.278;9.708;2023-08-30T12:17:39;21.90;62.60
48208;DHT22;33997;53.278;9.708;2023-08-30T12:20:05;22.60;59.70
48208;DHT22;33997;53.278;9.708;2023-08-30T12:22:41;22.60;61.00
48208;DHT22;33997;53.278;9.708;2023-08-30T12:25:36;22.60;60.80
48208;DHT22;33997;53.278;9.708;2023-08-30T12:28:02;22.10;60.10
48208;DHT22;33997;53.278;9.708;2023-08-30T12:30:29;21.90;60.00
48208;DHT22;33997;53.278;9.708;2023-08-30T12:33:00;22.60;59.40
48208;DHT22;33997;53.278;9.708;2023-08-30T12:35:27;23.00;58.20
48208;DHT22;33997;53.278;9.708;2023-08-30T12:37:53;23.70;58.10
48208;DHT22;33997;53.278;9.708;2023-08-30T12:40:18;23.50;55.80
48208;DHT22;33997;53.278;9.708;2023-08-30T12:42:44;23.80;55.50
48208;DHT22;33997;53.278;9.708;2023-08-30T12:45:09;24.70;55.10
48208;DHT22;33997;53.278;9.708;2023-08-30T12:47:35;24.00;52.90
48208;DHT22;33997;53.278;9.708;2023-08-30T12:50:01;24.20;55.40
48208;DHT22;33997;53.278;9.708;2023-08-30T12:52:26;24.80;55.30
48208;DHT22;33997;53.278;9.708;2023-08-30T12:54:52;24.50;54.80
48208;DHT22;33997;53.278;9.708;2023-08-30T12:57:19;23.50;56.00
48208;DHT22;33997;53.278;9.708;2023-08-30T12:59:44;23.10;55.90
48208;DHT22;33997;53.278;9.708;2023-08-30T13:02:10;22.70;57.30
48208;DHT22;33997;53.278;9.708;2023-08-30T13:04:35;22.80;57.20
48208;DHT22;33997;53.278;9.708;2023-08-30T13:07:03;22.50;58.90
48208;DHT22;33997;53.278;9.708;2023-08-30T13:09:28;22.00;58.80
48208;DHT22;33997;53.278;9.708;2023-08-30T13:11:54;21.70;58.30
48208;DHT22;33997;53.278;9.708;2023-08-30T13:14:19;21.50;59.20
48208;DHT22;33997;53.278;9.708;2023-08-30T13:16:44;21.50;60.00
48208;DHT22;33997;53.278;9.708;2023-08-30T13:19:10;21.60;59.10
48208;DHT22;33997;53.278;9.708;2023-08-30T13:21:35;22.20;59.70
48208;DHT22;33997;53.278;9.708;2023-08-30T13:24:01;22.40;58.20
48208;DHT22;33997;53.278;9.708;2023-08-30T13:26:28;22.20;58.30
48208;DHT22;33997;53.278;9.708;2023-08-30T13:28:53;21.50;57.80
48208;DHT22;33997;53.278;9.708;2023-08-30T13:31:19;21.20;58.00
48208;DHT22;33997;53.278;9.708;2023-08-30T13:33:44;21.60;57.10
48208;DHT22;33997;53.278;9.708;2023-08-30T13:36:10;21.50;58.90
48208;DHT22;33997;53.278;9.708;2023-08-30T13:38:35;21.40;57.50
48208;DHT22;33997;53.278;9.708;2023-08-30T13:41:00;21.60;58.50
48208;DHT22;33997;53.278;9.708;2023-08-30T13:43:26;21.20;59.60
48208;DHT22;33997;53.278;9.708;2023-08-30T13:45:59;21.20;61.20
48208;DHT22;33997;53.278;9.708;2023-08-30T13:48:24;21.30;62.90
48208;DHT22;33997;53.278;9.708;2023-08-30T13:50:50;21.00;60.70
48208;DHT22;33997;53.278;9.708;2023-08-30T13:53:15;20.80;61.20
48208;DHT22;33997;53.278;9.708;2023-08-30T13:55:45;20.40;61.10
48208;DHT22;33997;53.278;9.708;2023-08-30T13:58:11;20.10;61.10
48208;DHT22;33997;53.278;9.708;2023-08-30T14:00:36;20.10;62.30
48208;DHT22;33997;53.278;9.708;2023-08-30T14:03:02;20.10;63.60
48208;DHT22;33997;53.278;9.708;2023-08-30T14:05:28;20.00;63.30
48208;DHT22;33997;53.278;9.708;2023-08-30T14:07:53;19.90;63.40
48208;DHT22;33997;53.278;9.708;2023-08-30T14:10:19;19.90;64.10
48208;DHT22;33997;53.278;9.708;2023-08-30T14:12:44;19.90;65.50
48208;DHT22;33997;53.278;9.708;2023-08-30T14:15:10;19.70;64.30
48208;DHT22;33997;53.278;9.708;2023-08-30T14:17:35;19.70;65.90
48208;DHT22;33997;53.278;9.708;2023-08-30T14:20:01;19.50;65.60
48208;DHT22;33997;53.278;9.708;2023-08-30T14:22:26;19.50;66.70
48208;DHT22;33997;53.278;9.708;2023-08-30T14:24:52;19.50;67.80
48208;DHT22;33997;53.278;9.708;2023-08-30T14:27:17;19.40;68.20
48208;DHT22;33997;53.278;9.708;2023-08-30T14:29:42;19.40;69.20
48208;DHT22;33997;53.278;9.708;2023-08-30T14:32:08;19.30;69.30
48208;DHT22;33997;53.278;9.708;2023-08-30T14:34:33;19.30;69.40
48208;DHT22;33997;53.278;9.708;2023-08-30T14:36:59;19.20;69.20
48208;DHT22;33997;53.278;9.708;2023-08-30T14:39:24;19.20;70.40
48208;DHT22;33997;53.278;9.708;2023-08-30T14:41:50;19.10;70.40
48208;DHT22;33997;53.278;9.708;2023-08-30T14:44:15;19.00;69.70
48208;DHT22;33997;53.278;9.708;2023-08-30T14:46:41;19.10;69.70
48208;DHT22;33997;53.278;9.708;2023-08-30T14:49:06;19.00;70.50
48208;DHT22;33997;53.278;9.708;2023-08-30T14:51:32;19.00;69.80
48208;DHT22;33997;53.278;9.708;2023-08-30T14:53:57;18.90;70.20
48208;DHT22;33997;53.278;9.708;2023-08-30T14:56:22;19.00;70.20
48208;DHT22;33997;53.278;9.708;2023-08-30T14:58:48;19.00;70.70
48208;DHT22;33997;53.278;9.708;2023-08-30T15:01:16;19.00;71.50
48208;DHT22;33997;53.278;9.708;2023-08-30T15:03:42;19.00;71.50
48208;DHT22;33997;53.278;9.708;2023-08-30T15:06:07;19.00;71.90
48208;DHT22;33997;53.278;9.708;2023-08-30T15:08:33;19.00;72.20
48208;DHT22;33997;53.278;9.708;2023-08-30T15:10:58;19.00;73.00
48208;DHT22;33997;53.278;9.708;2023-08-30T15:13:24;18.90;73.10
48208;DHT22;33997;53.278;9.708;2023-08-30T15:15:49;18.80;73.20
48208;DHT22;33997;53.278;9.708;2023-08-30T15:18:15;18.80;75.30
48208;DHT22;33997;53.278;9.708;2023-08-30T15:20:40;18.70;76.10
48208;DHT22;33997;53.278;9.708;2023-08-30T15:23:06;18.70;76.60
48208;DHT22;33997;53.278;9.708;2023-08-30T15:25:31;18.60;74.80
48208;DHT22;33997;53.278;9.708;2023-08-30T15:27:57;18.50;75.00